sensor_id;sensor_type;location;lat;lon;timestamp;P1;durP1;ratioP1;P2;durP2;ratioP2
12367;SDS011;6248;49.812;6.620;2023-07-29T00:00:45;1.38;;;1.30;;
12367;SDS011;6248;49.812;6.620;2023-07-29T00:03:13;1.55;;;1.45;;
12367;SDS011;6248;49.812;6.620;2023-07-29T00:05:40;3.38;;;1.40;;
12367;SDS011;6248;49.812;6.620;2023-07-29T00:08:07;4.68;;;1.52;;
12367;SDS011;6248;49.812;6.620;2023-07-29T00:10:35;1.30;;;1.20;;
12367;SDS011;6248;49.812;6.620;2023-07-29T00:13:03;1.90;;;1.50;;
12367;SDS011;6248;49.812;6.620;2023-07-29T00:15:31;2.70;;;1.42;;
12367;SDS011;6248;49.812;6.620;2023-07-29T00:17:59;3.47;;;1.60;;
12367;SDS011;6248;49.812;6.620;2023-07-29T00:20:26;1.85;;;1.70;;
12367;SDS011;6248;49.812;6.620;2023-07-29T00:22:54;1.20;;;1.20;;
12367;SDS011;6248;49.812;6.620;2023-07-29T00:25:23;1.50;;;1.40;;
12367;SDS011;6248;49.812;6.620;2023-07-29T00:27:50;1.92;;;1.20;;
12367;SDS011;6248;49.812;6.620;2023-07-29T00:30:17;3.63;;;1.33;;
12367;SDS011;6248;49.812;6.620;2023-07-29T00:32:44;2.58;;;1.55;;
12367;SDS011;6248;49.812;6.620;2023-07-29T00:35:13;1.60;;;1.50;;
12367;SDS011;6248;49.812;6.620;2023-07-29T00:37:40;1.45;;;1.33;;
12367;SDS011;6248;49.812;6.620;2023-07-29T00:40:09;1.77;;;1.40;;
12367;SDS011;6248;49.812;6.620;2023-07-29T00:42:39;2.17;;;1.50;;
12367;SDS011;6248;49.812;6.620;2023-07-29T00:45:08;1.77;;;1.50;;
12367;SDS011;6248;49.812;6.620;2023-07-29T00:47:35;1.65;;;1.40;;
12367;SDS011;6248;49.812;6.620;2023-07-29T00:50:02;2.22;;;1.45;;
12367;SDS011;6248;49.812;6.620;2023-07-29T00:52:31;1.50;;;1.40;;
12367;SDS011;6248;49.812;6.620;2023-07-29T00:54:58;1.55;;;1.45;;
12367;SDS011;6248;49.812;6.620;2023-07-29T00:57:25;2.60;;;1.52;;
12367;SDS011;6248;49.812;6.620;2023-07-29T00:59:53;1.60;;;1.50;;
12367;SDS011;6248;49.812;6.620;2023-07-29T01:02:20;1.70;;;1.60;;
12367;SDS011;6248;49.812;6.620;2023-07-29T01:04:51;1.65;;;1.55;;
12367;SDS011;6248;49.812;6.620;2023-07-29T01:07:19;1.80;;;1.70;;
12367;SDS011;6248;49.812;6.620;2023-07-29T01:09:50;1.60;;;1.50;;
12367;SDS011;6248;49.812;6.620;2023-07-29T01:12:20;1.63;;;1.50;;
12367;SDS011;6248;49.812;6.620;2023-07-29T01:14:51;1.80;;;1.40;;
12367;SDS011;6248;49.812;6.620;2023-07-29T01:17:23;2.75;;;1.63;;
12367;SDS011;6248;49.812;6.620;2023-07-29T01:19:55;4.63;;;1.60;;
12367;SDS011;6248;49.812;6.620;2023-07-29T01:22:26;1.70;;;1.60;;
12367;SDS011;6248;49.812;6.620;2023-07-29T01:24:56;1.73;;;1.63;;
12367;SDS011;6248;49.812;6.620;2023-07-29T01:27:23;2.78;;;1.83;;
12367;SDS011;6248;49.812;6.620;2023-07-29T01:29:50;2.17;;;1.63;;
12367;SDS011;6248;49.812;6.620;2023-07-29T01:32:19;2.10;;;1.67;;
12367;SDS011;6248;49.812;6.620;2023-07-29T01:34:56;2.72;;;1.60;;
12367;SDS011;6248;49.812;6.620;2023-07-29T01:37:26;1.80;;;1.70;;
12367;SDS011;6248;49.812;6.620;2023-07-29T01:39:58;2.00;;;1.77;;
12367;SDS011;6248;49.812;6.620;2023-07-29T01:42:27;2.85;;;1.80;;
12367;SDS011;6248;49.812;6.620;2023-07-29T01:44:55;2.70;;;1.67;;
12367;SDS011;6248;49.812;6.620;2023-07-29T01:47:22;1.70;;;1.60;;
12367;SDS011;6248;49.812;6.620;2023-07-29T01:49:49;4.72;;;2.13;;
12367;SDS011;6248;49.812;6.620;2023-07-29T01:52:17;4.72;;;2.03;;
12367;SDS011;6248;49.812;6.620;2023-07-29T01:54:44;2.35;;;1.88;;
12367;SDS011;6248;49.812;6.620;2023-07-29T01:57:12;2.45;;;1.70;;
12367;SDS011;6248;49.812;6.620;2023-07-29T01:59:39;2.72;;;1.70;;
12367;SDS011;6248;49.812;6.620;2023-07-29T02:02:07;2.20;;;2.00;;
12367;SDS011;6248;49.812;6.620;2023-07-29T02:04:34;3.10;;;1.90;;
12367;SDS011;6248;49.812;6.620;2023-07-29T02:07:01;2.97;;;1.98;;
12367;SDS011;6248;49.812;6.620;2023-07-29T02:09:28;1.80;;;1.70;;
12367;SDS011;6248;49.812;6.620;2023-07-29T02:11:56;2.03;;;1.90;;
12367;SDS011;6248;49.812;6.620;2023-07-29T02:14:25;3.08;;;1.70;;
12367;SDS011;6248;49.812;6.620;2023-07-29T02:16:52;2.90;;;2.05;;
12367;SDS011;6248;49.812;6.620;2023-07-29T02:19:19;2.28;;;2.17;;
12367;SDS011;6248;49.812;6.620;2023-07-29T02:21:46;2.03;;;1.80;;
12367;SDS011;6248;49.812;6.620;2023-07-29T02:24:14;1.70;;;1.60;;
12367;SDS011;6248;49.812;6.620;2023-07-29T02:26:41;3.00;;;1.67;;
12367;SDS011;6248;49.812;6.620;2023-07-29T02:29:08;3.55;;;1.88;;
12367;SDS011;6248;49.812;6.620;2023-07-29T02:31:36;2.53;;;2.10;;
12367;SDS011;6248;49.812;6.620;2023-07-29T02:34:04;3.95;;;2.10;;
12367;SDS011;6248;49.812;6.620;2023-07-29T02:36:31;2.45;;;2.17;;
12367;SDS011;6248;49.812;6.620;2023-07-29T02:38:58;2.88;;;2.35;;
12367;SDS011;6248;49.812;6.620;2023-07-29T02:41:25;4.72;;;2.22;;
12367;SDS011;6248;49.812;6.620;2023-07-29T02:43:52;3.22;;;2.90;;
12367;SDS011;6248;49.812;6.620;2023-07-29T02:46:19;3.47;;;2.30;;
12367;SDS011;6248;49.812;6.620;2023-07-29T02:48:48;3.38;;;2.63;;
12367;SDS011;6248;49.812;6.620;2023-07-29T02:51:15;3.03;;;2.72;;
12367;SDS011;6248;49.812;6.620;2023-07-29T02:53:42;4.15;;;2.30;;
12367;SDS011;6248;49.812;6.620;2023-07-29T02:56:09;3.67;;;2.15;;
12367;SDS011;6248;49.812;6.620;2023-07-29T02:58:36;3.40;;;2.90;;
12367;SDS011;6248;49.812;6.620;2023-07-29T03:01:05;3.88;;;3.30;;
12367;SDS011;6248;49.812;6.620;2023-07-29T03:03:32;5.55;;;3.30;;
12367;SDS011;6248;49.812;6.620;2023-07-29T03:06:01;3.63;;;2.63;;
12367;SDS011;6248;49.812;6.620;2023-07-29T03:08:29;4.68;;;2.40;;
12367;SDS011;6248;49.812;6.620;2023-07-29T03:10:56;2.67;;;2.53;;
12367;SDS011;6248;49.812;6.620;2023-07-29T03:13:23;4.68;;;2.55;;
12367;SDS011;6248;49.812;6.620;2023-07-29T03:15:50;3.65;;;2.55;;
12367;SDS011;6248;49.812;6.620;2023-07-29T03:18:18;5.13;;;2.40;;
12367;SDS011;6248;49.812;6.620;2023-07-29T03:20:45;2.35;;;2.08;;
12367;SDS011;6248;49.812;6.620;2023-07-29T03:23:13;2.58;;;2.20;;
12367;SDS011;6248;49.812;6.620;2023-07-29T03:25:40;2.72;;;2.30;;
12367;SDS011;6248;49.812;6.620;2023-07-29T03:28:08;2.97;;;1.90;;
12367;SDS011;6248;49.812;6.620;2023-07-29T03:30:35;2.83;;;2.28;;
12367;SDS011;6248;49.812;6.620;2023-07-29T03:33:02;2.85;;;1.92;;
12367;SDS011;6248;49.812;6.620;2023-07-29T03:35:29;2.10;;;1.90;;
12367;SDS011;6248;49.812;6.620;2023-07-29T03:37:57;2.97;;;1.85;;
12367;SDS011;6248;49.812;6.620;2023-07-29T03:40:25;4.28;;;2.60;;
12367;SDS011;6248;49.812;6.620;2023-07-29T03:42:52;4.22;;;2.83;;
12367;SDS011;6248;49.812;6.620;2023-07-29T03:45:19;3.30;;;2.97;;
12367;SDS011;6248;49.812;6.620;2023-07-29T03:47:47;7.78;;;2.70;;
12367;SDS011;6248;49.812;6.620;2023-07-29T03:50:14;3.45;;;2.50;;
12367;SDS011;6248;49.812;6.620;2023-07-29T03:52:41;3.30;;;2.50;;
12367;SDS011;6248;49.812;6.620;2023-07-29T03:55:08;6.43;;;2.70;;
12367;SDS011;6248;49.812;6.620;2023-07-29T03:57:37;3.97;;;2.75;;
12367;SDS011;6248;49.812;6.620;2023-07-29T04:00:04;2.60;;;2.38;;
12367;SDS011;6248;49.812;6.620;2023-07-29T04:02:32;4.90;;;2.60;;
12367;SDS011;6248;49.812;6.620;2023-07-29T04:04:59;2.90;;;2.40;;
12367;SDS011;6248;49.812;6.620;2023-07-29T04:07:26;4.53;;;2.13;;
12367;SDS011;6248;49.812;6.620;2023-07-29T04:09:53;2.55;;;2.35;;
12367;SDS011;6248;49.812;6.620;2023-07-29T04:12:21;2.30;;;1.92;;
12367;SDS011;6248;49.812;6.620;2023-07-29T04:14:50;2.28;;;2.03;;
12367;SDS011;6248;49.812;6.620;2023-07-29T04:17:17;2.15;;;2.03;;
12367;SDS011;6248;49.812;6.620;2023-07-29T04:19:44;2.00;;;1.90;;
12367;SDS011;6248;49.812;6.620;2023-07-29T04:22:12;1.80;;;1.70;;
12367;SDS011;6248;49.812;6.620;2023-07-29T04:24:39;2.70;;;1.75;;
12367;SDS011;6248;49.812;6.620;2023-07-29T04:27:06;1.80;;;1.70;;
12367;SDS011;6248;49.812;6.620;2023-07-29T04:29:33;3.28;;;1.70;;
12367;SDS011;6248;49.812;6.620;2023-07-29T04:32:03;1.80;;;1.70;;
12367;SDS011;6248;49.812;6.620;2023-07-29T04:34:30;2.08;;;1.63;;
12367;SDS011;6248;49.812;6.620;2023-07-29T04:36:57;3.30;;;1.77;;
12367;SDS011;6248;49.812;6.620;2023-07-29T04:39:24;2.92;;;1.70;;
12367;SDS011;6248;49.812;6.620;2023-07-29T04:41:51;3.15;;;1.98;;
12367;SDS011;6248;49.812;6.620;2023-07-29T04:44:19;2.58;;;1.70;;
12367;SDS011;6248;49.812;6.620;2023-07-29T04:46:46;2.78;;;1.35;;
12367;SDS011;6248;49.812;6.620;2023-07-29T04:49:14;1.67;;;1.58;;
12367;SDS011;6248;49.812;6.620;2023-07-29T04:51:41;1.60;;;1.50;;
12367;SDS011;6248;49.812;6.620;2023-07-29T04:54:09;2.55;;;1.75;;
12367;SDS011;6248;49.812;6.620;2023-07-29T04:56:36;1.73;;;1.63;;
12367;SDS011;6248;49.812;6.620;2023-07-29T04:59:03;2.17;;;1.52;;
12367;SDS011;6248;49.812;6.620;2023-07-29T05:01:30;2.63;;;1.60;;
12367;SDS011;6248;49.812;6.620;2023-07-29T05:03:57;1.90;;;1.80;;
12367;SDS011;6248;49.812;6.620;2023-07-29T05:06:26;3.58;;;1.90;;
12367;SDS011;6248;49.812;6.620;2023-07-29T05:08:53;1.70;;;1.60;;
12367;SDS011;6248;49.812;6.620;2023-07-29T05:11:20;1.63;;;1.50;;
12367;SDS011;6248;49.812;6.620;2023-07-29T05:13:50;1.77;;;1.67;;
12367;SDS011;6248;49.812;6.620;2023-07-29T05:16:17;1.48;;;1.38;;
12367;SDS011;6248;49.812;6.620;2023-07-29T05:18:44;1.70;;;1.60;;
12367;SDS011;6248;49.812;6.620;2023-07-29T05:21:11;1.50;;;1.40;;
12367;SDS011;6248;49.812;6.620;2023-07-29T05:23:40;2.25;;;1.33;;
12367;SDS011;6248;49.812;6.620;2023-07-29T05:26:07;1.30;;;1.20;;
12367;SDS011;6248;49.812;6.620;2023-07-29T05:28:35;1.35;;;1.25;;
12367;SDS011;6248;49.812;6.620;2023-07-29T05:31:02;1.50;;;1.40;;
12367;SDS011;6248;49.812;6.620;2023-07-29T05:33:29;2.97;;;1.35;;
12367;SDS011;6248;49.812;6.620;2023-07-29T05:35:56;2.58;;;1.20;;
12367;SDS011;6248;49.812;6.620;2023-07-29T05:38:23;1.40;;;1.30;;
12367;SDS011;6248;49.812;6.620;2023-07-29T05:40:52;1.52;;;1.42;;
12367;SDS011;6248;49.812;6.620;2023-07-29T05:43:19;1.85;;;1.27;;
12367;SDS011;6248;49.812;6.620;2023-07-29T05:45:46;1.38;;;1.27;;
12367;SDS011;6248;49.812;6.620;2023-07-29T05:48:13;1.27;;;1.20;;
12367;SDS011;6248;49.812;6.620;2023-07-29T05:50:40;1.92;;;1.30;;
12367;SDS011;6248;49.812;6.620;2023-07-29T05:53:08;3.60;;;1.50;;
12367;SDS011;6248;49.812;6.620;2023-07-29T05:55:35;1.92;;;1.80;;
12367;SDS011;6248;49.812;6.620;2023-07-29T05:58:03;2.10;;;1.90;;
12367;SDS011;6248;49.812;6.620;2023-07-29T06:00:30;2.10;;;1.92;;
12367;SDS011;6248;49.812;6.620;2023-07-29T06:02:58;2.22;;;2.00;;
12367;SDS011;6248;49.812;6.620;2023-07-29T06:05:25;2.63;;;2.00;;
12367;SDS011;6248;49.812;6.620;2023-07-29T06:07:52;2.70;;;2.10;;
12367;SDS011;6248;49.812;6.620;2023-07-29T06:10:19;3.00;;;2.13;;
12367;SDS011;6248;49.812;6.620;2023-07-29T06:12:47;1.90;;;1.80;;
12367;SDS011;6248;49.812;6.620;2023-07-29T06:15:16;1.75;;;1.65;;
12367;SDS011;6248;49.812;6.620;2023-07-29T06:17:46;3.20;;;2.20;;
12367;SDS011;6248;49.812;6.620;2023-07-29T06:20:14;2.33;;;2.13;;
12367;SDS011;6248;49.812;6.620;2023-07-29T06:22:41;4.65;;;2.22;;
12367;SDS011;6248;49.812;6.620;2023-07-29T06:25:08;2.17;;;1.98;;
12367;SDS011;6248;49.812;6.620;2023-07-29T06:27:35;2.17;;;2.03;;
12367;SDS011;6248;49.812;6.620;2023-07-29T06:30:03;3.42;;;2.05;;
12367;SDS011;6248;49.812;6.620;2023-07-29T06:32:31;2.53;;;1.98;;
12367;SDS011;6248;49.812;6.620;2023-07-29T06:34:58;1.90;;;1.80;;
12367;SDS011;6248;49.812;6.620;2023-07-29T06:37:26;2.30;;;2.03;;
12367;SDS011;6248;49.812;6.620;2023-07-29T06:39:53;2.45;;;2.25;;
12367;SDS011;6248;49.812;6.620;2023-07-29T06:42:20;2.30;;;2.08;;
12367;SDS011;6248;49.812;6.620;2023-07-29T06:44:47;2.05;;;1.88;;
12367;SDS011;6248;49.812;6.620;2023-07-29T06:47:14;1.88;;;1.70;;
12367;SDS011;6248;49.812;6.620;2023-07-29T06:49:43;2.15;;;1.88;;
12367;SDS011;6248;49.812;6.620;2023-07-29T06:52:10;2.25;;;1.70;;
12367;SDS011;6248;49.812;6.620;2023-07-29T06:54:37;4.45;;;2.50;;
12367;SDS011;6248;49.812;6.620;2023-07-29T06:57:07;2.40;;;2.22;;
12367;SDS011;6248;49.812;6.620;2023-07-29T06:59:34;1.80;;;1.70;;
12367;SDS011;6248;49.812;6.620;2023-07-29T07:02:02;2.92;;;2.08;;
12367;SDS011;6248;49.812;6.620;2023-07-29T07:04:29;2.22;;;1.83;;
12367;SDS011;6248;49.812;6.620;2023-07-29T07:06:57;1.80;;;1.70;;
12367;SDS011;6248;49.812;6.620;2023-07-29T07:09:24;2.30;;;1.88;;
12367;SDS011;6248;49.812;6.620;2023-07-29T07:11:52;5.45;;;4.30;;
12367;SDS011;6248;49.812;6.620;2023-07-29T07:14:19;4.60;;;4.20;;
12367;SDS011;6248;49.812;6.620;2023-07-29T07:16:46;4.25;;;3.67;;
12367;SDS011;6248;49.812;6.620;2023-07-29T07:19:13;4.18;;;3.47;;
12367;SDS011;6248;49.812;6.620;2023-07-29T07:21:40;2.60;;;2.50;;
12367;SDS011;6248;49.812;6.620;2023-07-29T07:24:09;1.83;;;1.73;;
12367;SDS011;6248;49.812;6.620;2023-07-29T07:26:36;3.28;;;1.83;;
12367;SDS011;6248;49.812;6.620;2023-07-29T07:29:03;1.67;;;1.45;;
12367;SDS011;6248;49.812;6.620;2023-07-29T07:31:32;1.52;;;1.42;;
12367;SDS011;6248;49.812;6.620;2023-07-29T07:34:00;3.63;;;1.60;;
12367;SDS011;6248;49.812;6.620;2023-07-29T07:36:28;5.00;;;1.60;;
12367;SDS011;6248;49.812;6.620;2023-07-29T07:38:56;1.70;;;1.60;;
12367;SDS011;6248;49.812;6.620;2023-07-29T07:41:24;1.55;;;1.45;;
12367;SDS011;6248;49.812;6.620;2023-07-29T07:43:51;2.92;;;1.73;;
12367;SDS011;6248;49.812;6.620;2023-07-29T07:46:19;3.80;;;1.65;;
12367;SDS011;6248;49.812;6.620;2023-07-29T07:48:46;1.73;;;1.50;;
12367;SDS011;6248;49.812;6.620;2023-07-29T07:51:13;1.60;;;1.50;;
12367;SDS011;6248;49.812;6.620;2023-07-29T07:53:40;1.50;;;1.40;;
12367;SDS011;6248;49.812;6.620;2023-07-29T07:56:07;2.30;;;1.60;;
12367;SDS011;6248;49.812;6.620;2023-07-29T07:58:36;1.92;;;1.80;;
12367;SDS011;6248;49.812;6.620;2023-07-29T08:01:03;3.22;;;1.90;;
12367;SDS011;6248;49.812;6.620;2023-07-29T08:03:31;4.72;;;1.50;;
12367;SDS011;6248;49.812;6.620;2023-07-29T08:05:58;3.20;;;1.40;;
12367;SDS011;6248;49.812;6.620;2023-07-29T08:08:26;2.28;;;1.40;;
12367;SDS011;6248;49.812;6.620;2023-07-29T08:10:53;1.50;;;1.40;;
12367;SDS011;6248;49.812;6.620;2023-07-29T08:13:20;1.58;;;1.30;;
12367;SDS011;6248;49.812;6.620;2023-07-29T08:15:49;1.33;;;1.30;;
12367;SDS011;6248;49.812;6.620;2023-07-29T08:18:17;1.13;;;1.13;;
12367;SDS011;6248;49.812;6.620;2023-07-29T08:20:51;2.22;;;1.58;;
12367;SDS011;6248;49.812;6.620;2023-07-29T08:23:19;1.60;;;1.50;;
12367;SDS011;6248;49.812;6.620;2023-07-29T08:25:50;1.80;;;1.70;;
12367;SDS011;6248;49.812;6.620;2023-07-29T08:28:17;1.30;;;1.30;;
12367;SDS011;6248;49.812;6.620;2023-07-29T08:30:44;4.72;;;1.60;;
12367;SDS011;6248;49.812;6.620;2023-07-29T08:33:13;1.60;;;1.50;;
12367;SDS011;6248;49.812;6.620;2023-07-29T08:35:40;1.42;;;1.33;;
12367;SDS011;6248;49.812;6.620;2023-07-29T08:38:07;1.75;;;1.27;;
12367;SDS011;6248;49.812;6.620;2023-07-29T08:40:34;2.00;;;1.30;;
12367;SDS011;6248;49.812;6.620;2023-07-29T08:43:03;1.33;;;1.10;;
12367;SDS011;6248;49.812;6.620;2023-07-29T08:45:31;1.40;;;1.30;;
12367;SDS011;6248;49.812;6.620;2023-07-29T08:48:02;1.52;;;1.42;;
12367;SDS011;6248;49.812;6.620;2023-07-29T08:50:34;1.70;;;1.60;;
12367;SDS011;6248;49.812;6.620;2023-07-29T08:53:03;1.63;;;1.38;;
12367;SDS011;6248;49.812;6.620;2023-07-29T08:55:31;2.70;;;1.60;;
12367;SDS011;6248;49.812;6.620;2023-07-29T08:57:59;2.58;;;1.60;;
12367;SDS011;6248;49.812;6.620;2023-07-29T09:00:26;2.15;;;1.35;;
12367;SDS011;6248;49.812;6.620;2023-07-29T09:02:54;1.48;;;1.38;;
12367;SDS011;6248;49.812;6.620;2023-07-29T09:05:27;2.13;;;1.50;;
12367;SDS011;6248;49.812;6.620;2023-07-29T09:07:55;2.13;;;1.40;;
12367;SDS011;6248;49.812;6.620;2023-07-29T09:10:23;1.40;;;1.30;;
12367;SDS011;6248;49.812;6.620;2023-07-29T09:12:51;1.80;;;1.70;;
12367;SDS011;6248;49.812;6.620;2023-07-29T09:15:26;1.65;;;1.40;;
12367;SDS011;6248;49.812;6.620;2023-07-29T09:17:53;1.70;;;1.50;;
12367;SDS011;6248;49.812;6.620;2023-07-29T09:20:23;1.30;;;1.20;;
12367;SDS011;6248;49.812;6.620;2023-07-29T09:22:50;1.55;;;1.45;;
12367;SDS011;6248;49.812;6.620;2023-07-29T09:25:23;1.52;;;1.40;;
12367;SDS011;6248;49.812;6.620;2023-07-29T09:27:50;2.25;;;1.30;;
12367;SDS011;6248;49.812;6.620;2023-07-29T09:30:18;1.65;;;1.50;;
12367;SDS011;6248;49.812;6.620;2023-07-29T09:32:45;1.38;;;1.30;;
12367;SDS011;6248;49.812;6.620;2023-07-29T09:35:13;1.88;;;1.30;;
12367;SDS011;6248;49.812;6.620;2023-07-29T09:37:43;2.55;;;1.45;;
12367;SDS011;6248;49.812;6.620;2023-07-29T09:40:13;0.95;;;0.95;;
12367;SDS011;6248;49.812;6.620;2023-07-29T09:42:48;1.45;;;1.30;;
12367;SDS011;6248;49.812;6.620;2023-07-29T09:45:20;1.38;;;1.27;;
12367;SDS011;6248;49.812;6.620;2023-07-29T09:47:48;2.90;;;1.25;;
12367;SDS011;6248;49.812;6.620;2023-07-29T09:50:16;3.17;;;1.30;;
12367;SDS011;6248;49.812;6.620;2023-07-29T09:52:44;1.40;;;1.30;;
12367;SDS011;6248;49.812;6.620;2023-07-29T09:55:13;1.17;;;1.13;;
12367;SDS011;6248;49.812;6.620;2023-07-29T09:57:44;1.48;;;1.10;;
12367;SDS011;6248;49.812;6.620;2023-07-29T10:00:13;2.10;;;1.10;;
12367;SDS011;6248;49.812;6.620;2023-07-29T10:02:41;1.30;;;1.20;;
12367;SDS011;6248;49.812;6.620;2023-07-29T10:05:09;1.48;;;1.10;;
12367;SDS011;6248;49.812;6.620;2023-07-29T10:07:37;1.27;;;1.10;;
12367;SDS011;6248;49.812;6.620;2023-07-29T10:10:04;1.83;;;1.35;;
12367;SDS011;6248;49.812;6.620;2023-07-29T10:12:32;1.45;;;1.20;;
12367;SDS011;6248;49.812;6.620;2023-07-29T10:14:59;1.15;;;1.15;;
12367;SDS011;6248;49.812;6.620;2023-07-29T10:17:28;3.30;;;1.13;;
12367;SDS011;6248;49.812;6.620;2023-07-29T10:19:56;1.25;;;1.17;;
12367;SDS011;6248;49.812;6.620;2023-07-29T10:22:24;2.08;;;1.17;;
12367;SDS011;6248;49.812;6.620;2023-07-29T10:24:52;1.38;;;1.13;;
12367;SDS011;6248;49.812;6.620;2023-07-29T10:27:20;1.90;;;1.15;;
12367;SDS011;6248;49.812;6.620;2023-07-29T10:29:49;1.20;;;1.20;;
12367;SDS011;6248;49.812;6.620;2023-07-29T10:32:17;1.60;;;1.23;;
12367;SDS011;6248;49.812;6.620;2023-07-29T10:34:47;1.15;;;1.15;;
12367;SDS011;6248;49.812;6.620;2023-07-29T10:37:14;1.35;;;1.13;;
12367;SDS011;6248;49.812;6.620;2023-07-29T10:39:51;2.33;;;1.35;;
12367;SDS011;6248;49.812;6.620;2023-07-29T10:42:18;1.20;;;1.20;;
12367;SDS011;6248;49.812;6.620;2023-07-29T10:44:46;1.55;;;1.45;;
12367;SDS011;6248;49.812;6.620;2023-07-29T10:47:14;1.30;;;1.30;;
12367;SDS011;6248;49.812;6.620;2023-07-29T10:49:42;1.42;;;1.25;;
12367;SDS011;6248;49.812;6.620;2023-07-29T10:52:13;4.00;;;1.42;;
12367;SDS011;6248;49.812;6.620;2023-07-29T10:54:42;1.88;;;1.30;;
12367;SDS011;6248;49.812;6.620;2023-07-29T10:57:12;4.07;;;1.23;;
12367;SDS011;6248;49.812;6.620;2023-07-29T10:59:40;1.08;;;0.95;;
12367;SDS011;6248;49.812;6.620;2023-07-29T11:02:17;1.67;;;1.10;;
12367;SDS011;6248;49.812;6.620;2023-07-29T11:04:49;1.42;;;1.33;;
12367;SDS011;6248;49.812;6.620;2023-07-29T11:07:24;1.85;;;1.55;;
12367;SDS011;6248;49.812;6.620;2023-07-29T11:09:58;1.95;;;1.30;;
12367;SDS011;6248;49.812;6.620;2023-07-29T11:15:18;1.10;;;1.10;;
12367;SDS011;6248;49.812;6.620;2023-07-29T11:17:46;1.25;;;1.23;;
12367;SDS011;6248;49.812;6.620;2023-07-29T11:20:14;1.65;;;1.23;;
12367;SDS011;6248;49.812;6.620;2023-07-29T11:22:42;1.13;;;0.95;;
12367;SDS011;6248;49.812;6.620;2023-07-29T11:25:10;1.45;;;1.35;;
12367;SDS011;6248;49.812;6.620;2023-07-29T11:27:38;1.60;;;1.08;;
12367;SDS011;6248;49.812;6.620;2023-07-29T11:30:06;1.20;;;1.20;;
12367;SDS011;6248;49.812;6.620;2023-07-29T11:32:34;1.00;;;1.00;;
12367;SDS011;6248;49.812;6.620;2023-07-29T11:35:02;1.13;;;1.10;;
12367;SDS011;6248;49.812;6.620;2023-07-29T11:37:30;1.63;;;1.33;;
12367;SDS011;6248;49.812;6.620;2023-07-29T11:39:58;1.10;;;1.10;;
12367;SDS011;6248;49.812;6.620;2023-07-29T11:42:26;1.45;;;1.17;;
12367;SDS011;6248;49.812;6.620;2023-07-29T11:44:53;2.28;;;1.20;;
12367;SDS011;6248;49.812;6.620;2023-07-29T11:47:23;1.00;;;1.00;;
12367;SDS011;6248;49.812;6.620;2023-07-29T11:49:50;1.13;;;1.13;;
12367;SDS011;6248;49.812;6.620;2023-07-29T11:52:18;1.15;;;1.15;;
12367;SDS011;6248;49.812;6.620;2023-07-29T11:54:46;1.13;;;1.13;;
12367;SDS011;6248;49.812;6.620;2023-07-29T11:57:15;1.17;;;1.17;;
12367;SDS011;6248;49.812;6.620;2023-07-29T11:59:43;1.23;;;1.00;;
12367;SDS011;6248;49.812;6.620;2023-07-29T12:02:11;1.33;;;1.20;;
12367;SDS011;6248;49.812;6.620;2023-07-29T12:04:39;1.20;;;1.10;;
12367;SDS011;6248;49.812;6.620;2023-07-29T12:07:07;1.60;;;1.13;;
12367;SDS011;6248;49.812;6.620;2023-07-29T12:09:34;1.65;;;1.20;;
12367;SDS011;6248;49.812;6.620;2023-07-29T12:12:01;1.05;;;1.05;;
12367;SDS011;6248;49.812;6.620;2023-07-29T12:14:30;2.42;;;1.10;;
12367;SDS011;6248;49.812;6.620;2023-07-29T12:16:59;1.58;;;1.20;;
12367;SDS011;6248;49.812;6.620;2023-07-29T12:19:31;1.10;;;1.10;;
12367;SDS011;6248;49.812;6.620;2023-07-29T12:21:58;1.20;;;1.10;;
12367;SDS011;6248;49.812;6.620;2023-07-29T12:24:25;2.70;;;1.30;;
12367;SDS011;6248;49.812;6.620;2023-07-29T12:26:52;1.67;;;1.10;;
12367;SDS011;6248;49.812;6.620;2023-07-29T12:29:20;1.10;;;1.10;;
12367;SDS011;6248;49.812;6.620;2023-07-29T12:31:48;3.25;;;1.30;;
12367;SDS011;6248;49.812;6.620;2023-07-29T12:34:19;1.73;;;1.20;;
12367;SDS011;6248;49.812;6.620;2023-07-29T12:36:47;2.05;;;1.23;;
12367;SDS011;6248;49.812;6.620;2023-07-29T12:39:17;2.25;;;1.20;;
12367;SDS011;6248;49.812;6.620;2023-07-29T12:41:45;1.60;;;1.20;;
12367;SDS011;6248;49.812;6.620;2023-07-29T12:44:12;2.55;;;1.30;;
12367;SDS011;6248;49.812;6.620;2023-07-29T12:46:39;1.10;;;1.08;;
12367;SDS011;6248;49.812;6.620;2023-07-29T12:49:08;1.10;;;1.00;;
12367;SDS011;6248;49.812;6.620;2023-07-29T12:51:35;1.20;;;1.13;;
12367;SDS011;6248;49.812;6.620;2023-07-29T12:54:03;1.23;;;1.15;;
12367;SDS011;6248;49.812;6.620;2023-07-29T12:56:30;1.63;;;1.10;;
12367;SDS011;6248;49.812;6.620;2023-07-29T12:58:58;1.80;;;1.40;;
12367;SDS011;6248;49.812;6.620;2023-07-29T13:01:25;1.17;;;1.17;;
12367;SDS011;6248;49.812;6.620;2023-07-29T13:03:55;2.15;;;1.20;;
12367;SDS011;6248;49.812;6.620;2023-07-29T13:06:24;2.83;;;1.25;;
12367;SDS011;6248;49.812;6.620;2023-07-29T13:08:51;1.50;;;1.40;;
12367;SDS011;6248;49.812;6.620;2023-07-29T13:11:18;1.15;;;1.15;;
12367;SDS011;6248;49.812;6.620;2023-07-29T13:13:45;1.35;;;1.25;;
12367;SDS011;6248;49.812;6.620;2023-07-29T13:16:13;5.53;;;1.10;;
12367;SDS011;6248;49.812;6.620;2023-07-29T13:18:40;1.38;;;1.17;;
12367;SDS011;6248;49.812;6.620;2023-07-29T13:21:07;1.50;;;1.25;;
12367;SDS011;6248;49.812;6.620;2023-07-29T13:23:35;1.30;;;1.20;;
12367;SDS011;6248;49.812;6.620;2023-07-29T13:26:03;1.48;;;1.38;;
12367;SDS011;6248;49.812;6.620;2023-07-29T13:28:30;1.42;;;1.33;;
12367;SDS011;6248;49.812;6.620;2023-07-29T13:30:57;1.48;;;1.38;;
12367;SDS011;6248;49.812;6.620;2023-07-29T13:33:24;2.80;;;1.40;;
12367;SDS011;6248;49.812;6.620;2023-07-29T13:35:51;2.33;;;1.45;;
12367;SDS011;6248;49.812;6.620;2023-07-29T13:38:19;2.05;;;1.20;;
12367;SDS011;6248;49.812;6.620;2023-07-29T13:40:47;1.65;;;1.17;;
12367;SDS011;6248;49.812;6.620;2023-07-29T13:43:16;1.38;;;1.30;;
12367;SDS011;6248;49.812;6.620;2023-07-29T13:45:43;1.20;;;1.20;;
12367;SDS011;6248;49.812;6.620;2023-07-29T13:48:13;1.45;;;1.23;;
12367;SDS011;6248;49.812;6.620;2023-07-29T13:50:40;2.97;;;1.15;;
12367;SDS011;6248;49.812;6.620;2023-07-29T13:53:08;1.63;;;1.10;;
12367;SDS011;6248;49.812;6.620;2023-07-29T13:55:36;1.38;;;1.20;;
12367;SDS011;6248;49.812;6.620;2023-07-29T13:58:04;1.63;;;1.30;;
12367;SDS011;6248;49.812;6.620;2023-07-29T14:00:32;1.20;;;1.10;;
12367;SDS011;6248;49.812;6.620;2023-07-29T14:02:59;1.45;;;1.10;;
12367;SDS011;6248;49.812;6.620;2023-07-29T14:05:26;1.33;;;1.23;;
12367;SDS011;6248;49.812;6.620;2023-07-29T14:07:54;1.20;;;1.17;;
12367;SDS011;6248;49.812;6.620;2023-07-29T14:10:21;1.10;;;1.10;;
12367;SDS011;6248;49.812;6.620;2023-07-29T14:12:48;1.15;;;1.15;;
12367;SDS011;6248;49.812;6.620;2023-07-29T14:15:17;1.20;;;1.13;;
12367;SDS011;6248;49.812;6.620;2023-07-29T14:17:44;1.10;;;1.10;;
12367;SDS011;6248;49.812;6.620;2023-07-29T14:20:11;1.00;;;1.00;;
12367;SDS011;6248;49.812;6.620;2023-07-29T14:22:38;1.30;;;1.20;;
12367;SDS011;6248;49.812;6.620;2023-07-29T14:25:06;1.15;;;1.10;;
12367;SDS011;6248;49.812;6.620;2023-07-29T14:27:33;1.20;;;1.20;;
12367;SDS011;6248;49.812;6.620;2023-07-29T14:30:01;1.10;;;1.10;;
12367;SDS011;6248;49.812;6.620;2023-07-29T14:32:29;1.00;;;1.00;;
12367;SDS011;6248;49.812;6.620;2023-07-29T14:34:56;1.10;;;1.10;;
12367;SDS011;6248;49.812;6.620;2023-07-29T14:37:28;1.35;;;1.25;;
12367;SDS011;6248;49.812;6.620;2023-07-29T14:39:55;1.30;;;1.20;;
12367;SDS011;6248;49.812;6.620;2023-07-29T14:42:23;1.20;;;1.20;;
12367;SDS011;6248;49.812;6.620;2023-07-29T14:44:50;1.30;;;1.20;;
12367;SDS011;6248;49.812;6.620;2023-07-29T14:47:17;1.35;;;1.17;;
12367;SDS011;6248;49.812;6.620;2023-07-29T14:49:45;1.60;;;1.50;;
12367;SDS011;6248;49.812;6.620;2023-07-29T14:52:14;1.40;;;1.30;;
12367;SDS011;6248;49.812;6.620;2023-07-29T14:54:41;2.45;;;1.17;;
12367;SDS011;6248;49.812;6.620;2023-07-29T14:57:09;1.30;;;1.20;;
12367;SDS011;6248;49.812;6.620;2023-07-29T14:59:36;1.25;;;1.17;;
12367;SDS011;6248;49.812;6.620;2023-07-29T15:02:04;2.30;;;2.20;;
12367;SDS011;6248;49.812;6.620;2023-07-29T15:04:31;1.42;;;1.40;;
12367;SDS011;6248;49.812;6.620;2023-07-29T15:06:59;1.20;;;1.20;;